Time;durP1;ratioP1;P1;durP2;ratioP2;P2;SDS_P1;SDS_P2;PMS_P1;PMS_P2;Temp;Humidity;BMP_temperature;BMP_pressure;BME280_temperature;BME280_humidity;BME280_pressure;Samples;Min_cycle;Max_cycle;Signal;HPM_P1;HPM_P2
2021/01/31 00:00:49;;;;;;;35.55;20.50;;;;;;;-3.01;81.12;97365.89;1745052;80;21154;-63
2021/01/31 00:03:23;;;;;;;35.88;21.95;;;;;;;-3.03;81.10;97369.84;1743743;80;21182;-63
2021/01/31 00:05:52;;;;;;;34.88;21.17;;;;;;;-3.05;81.03;97365.30;1744220;82;21158;-63
2021/01/31 00:08:21;;;;;;;34.55;22.73;;;;;;;-3.11;80.86;97359.59;1735142;80;21161;-63
2021/01/31 00:10:49;;;;;;;37.10;24.02;;;;;;;-3.08;80.87;97370.56;1669925;85;21122;-63
2021/01/31 00:13:17;;;;;;;35.52;22.52;;;;;;;-3.13;81.08;97370.50;1671398;83;21550;-63
2021/01/31 00:15:48;;;;;;;36.10;22.90;;;;;;;-3.12;81.14;97379.30;1739778;82;21173;-64
2021/01/31 00:18:19;;;;;;;37.90;23.67;;;;;;;-3.12;81.08;97394.72;1737700;82;21173;-63
2021/01/31 00:20:50;;;;;;;39.98;25.27;;;;;;;-3.16;81.31;97406.11;1739348;82;21170;-63
2021/01/31 00:23:17;;;;;;;42.30;25.55;;;;;;;-3.19;81.44;97406.59;1739975;82;21238;-63
2021/01/31 00:25:45;;;;;;;37.28;22.58;;;;;;;-3.20;81.55;97416.94;1740182;82;21284;-63
2021/01/31 00:28:14;;;;;;;44.27;27.85;;;;;;;-3.20;81.69;97419.60;1732211;80;21537;-63
2021/01/31 00:30:43;;;;;;;38.98;24.65;;;;;;;-3.16;81.52;97420.74;1739726;82;21604;-64
2021/01/31 00:33:17;;;;;;;39.15;23.32;;;;;;;-3.24;81.78;97426.45;1718471;82;21295;-64
2021/01/31 00:35:45;;;;;;;37.42;22.58;;;;;;;-3.25;81.66;97431.48;1743998;80;21145;-64
2021/01/31 00:38:15;;;;;;;38.75;26.25;;;;;;;-3.30;81.60;97443.38;1739406;82;22102;-64
2021/01/31 00:40:43;;;;;;;35.25;24.00;;;;;;;-3.31;81.52;97437.77;1739322;82;21158;-63
2021/01/31 00:43:11;;;;;;;38.83;24.63;;;;;;;-3.34;81.66;97439.58;1737750;82;21288;-63
2021/01/31 00:45:38;;;;;;;33.15;21.15;;;;;;;-3.34;81.61;97445.70;1729557;80;21494;-64
2021/01/31 00:48:06;;;;;;;31.77;19.30;;;;;;;-3.37;81.27;97452.84;1741329;80;21649;-63
2021/01/31 00:50:36;;;;;;;36.40;20.72;;;;;;;-3.34;81.17;97459.53;1740113;80;21161;-64
2021/01/31 00:53:05;;;;;;;34.67;20.43;;;;;;;-3.42;81.23;97451.92;1744263;82;21145;-64
2021/01/31 00:55:34;;;;;;;27.77;18.87;;;;;;;-3.40;81.08;97465.26;1740938;82;21736;-64
2021/01/31 00:58:02;;;;;;;26.40;15.40;;;;;;;-3.44;81.02;97454.84;1676606;85;21231;-63
2021/01/31 01:00:35;;;;;;;27.58;17.62;;;;;;;-3.50;80.95;97465.07;1741923;82;21578;-63
2021/01/31 01:03:05;;;;;;;23.87;15.18;;;;;;;-3.42;80.89;97471.88;1738041;82;21171;-63
2021/01/31 01:05:44;;;;;;;23.92;14.55;;;;;;;-3.45;80.89;97474.49;1807419;79;23536;-62
2021/01/31 01:08:12;;;;;;;21.87;13.48;;;;;;;-3.43;80.80;97476.38;1777980;78;21126;-62
2021/01/31 01:10:39;;;;;;;20.72;12.33;;;;;;;-3.43;80.45;97472.91;1754080;81;21165;-63
2021/01/31 01:13:07;;;;;;;17.15;12.00;;;;;;;-3.40;80.30;97484.43;1745020;80;21593;-63
2021/01/31 01:15:34;;;;;;;21.57;13.83;;;;;;;-3.40;80.21;97487.87;1750726;80;21148;-65
2021/01/31 01:18:02;;;;;;;19.05;11.12;;;;;;;-3.40;80.10;97495.07;1757470;80;21176;-62
2021/01/31 01:20:30;;;;;;;20.52;12.53;;;;;;;-3.43;79.99;97507.48;1723603;81;21180;-63
2021/01/31 01:22:58;;;;;;;16.70;11.20;;;;;;;-3.47;80.11;97508.48;1753600;80;21159;-64
2021/01/31 01:25:25;;;;;;;18.95;10.75;;;;;;;-3.44;80.04;97515.20;1752541;81;21188;-64
2021/01/31 01:27:54;;;;;;;16.77;10.10;;;;;;;-3.49;80.15;97522.55;1757033;81;21136;-64
2021/01/31 01:30:27;;;;;;;17.23;12.33;;;;;;;-3.46;80.15;97522.59;1747621;81;21544;-63
2021/01/31 01:32:55;;;;;;;13.10;9.45;;;;;;;-3.46;80.16;97530.57;1747150;81;21275;-65
2021/01/31 01:35:23;;;;;;;13.50;9.60;;;;;;;-3.46;80.10;97533.23;1749774;80;21149;-64
2021/01/31 01:37:51;;;;;;;15.18;10.65;;;;;;;-3.45;80.10;97535.67;1741992;82;21550;-65
2021/01/31 01:40:24;;;;;;;13.32;8.38;;;;;;;-3.46;80.09;97547.34;1750805;82;21331;-65
2021/01/31 01:42:52;;;;;;;14.75;9.88;;;;;;;-3.46;79.99;97551.34;1747560;80;21145;-65
2021/01/31 01:45:20;;;;;;;12.65;8.28;;;;;;;-3.43;79.95;97555.37;1747249;80;21636;-64
2021/01/31 01:47:50;;;;;;;14.03;9.55;;;;;;;-3.46;80.16;97551.34;1756462;81;21732;-64
2021/01/31 01:50:41;;;;;;;11.90;8.68;;;;;;;-3.56;80.38;97547.14;1755204;80;21283;-63
2021/01/31 01:53:08;;;;;;;12.73;9.00;;;;;;;-3.51;80.14;97559.23;1752433;81;21359;-64
2021/01/31 01:55:56;;;;;;;11.50;7.78;;;;;;;-3.57;80.31;97556.97;1752268;82;21769;-64
2021/01/31 01:58:24;;;;;;;10.32;7.30;;;;;;;-3.53;80.24;97555.46;1752604;80;21281;-64
2021/01/31 02:00:51;;;;;;;11.63;7.83;;;;;;;-3.58;80.32;97574.51;1748713;80;21599;-64
2021/01/31 02:03:31;;;;;;;10.72;7.08;;;;;;;-3.59;80.34;97586.99;1753804;80;21184;-63
2021/01/31 02:06:09;;;;;;;12.47;7.60;;;;;;;-3.62;80.51;97576.83;1753140;82;21739;-64
2021/01/31 02:08:39;;;;;;;13.95;7.78;;;;;;;-3.65;80.72;97601.20;1725650;80;21589;-65
2021/01/31 02:11:09;;;;;;;10.65;6.00;;;;;;;-3.58;80.54;97604.55;1746037;82;21168;-64
2021/01/31 02:13:37;;;;;;;12.18;7.03;;;;;;;-3.60;80.69;97605.31;1750720;80;21589;-64
2021/01/31 02:16:07;;;;;;;12.13;6.50;;;;;;;-3.57;80.64;97600.85;1736051;82;21983;-64
2021/01/31 02:19:01;;;;;;;9.08;5.58;;;;;;;-3.57;80.69;97598.70;1731111;80;21216;-64
2021/01/31 02:21:56;;;;;;;10.82;6.05;;;;;;;-3.51;80.50;97613.20;1740295;80;21149;-64
2021/01/31 02:24:42;;;;;;;10.63;6.17;;;;;;;-3.53;80.51;97611.83;1750575;80;21194;-65
2021/01/31 02:27:33;;;;;;;11.70;6.60;;;;;;;-3.49;80.45;97613.50;1741928;82;21145;-64
2021/01/31 02:30:23;;;;;;;10.00;6.03;;;;;;;-3.52;80.51;97632.08;1736144;80;21161;-65
2021/01/31 02:33:13;;;;;;;10.95;6.05;;;;;;;-3.56;80.60;97634.39;1715900;80;21675;-64
2021/01/31 02:35:43;;;;;;;10.00;6.25;;;;;;;-3.51;80.45;97645.67;1749148;80;21291;-64
2021/01/31 02:38:34;;;;;;;10.70;6.45;;;;;;;-3.54;80.57;97660.22;1728442;81;21150;-64
2021/01/31 02:43:10;;;;;;;10.03;5.67;;;;;;;-3.48;80.84;97673.65;1760408;79;23106;-65
2021/01/31 02:45:51;;;;;;;9.03;6.33;;;;;;;-3.48;80.75;97681.63;1725742;82;21149;-65
2021/01/31 02:48:43;;;;;;;9.05;6.10;;;;;;;-3.47;80.79;97679.27;1706990;82;21620;-65
2021/01/31 02:51:19;;;;;;;10.32;7.15;;;;;;;-3.45;80.76;97681.16;1730728;82;21612;-65
2021/01/31 02:54:16;;;;;;;9.28;6.33;;;;;;;-3.49;81.04;97695.44;1670002;85;21186;-66
2021/01/31 02:56:56;;;;;;;7.23;5.07;;;;;;;-3.47;80.91;97694.68;1666320;86;21199;-65
2021/01/31 02:59:49;;;;;;;10.85;6.78;;;;;;;-3.43;80.91;97702.48;1652458;86;21222;-65
2021/01/31 03:02:27;;;;;;;9.80;6.45;;;;;;;-3.49;80.84;97711.41;1674352;84;21303;-65
2021/01/31 03:05:06;;;;;;;8.95;6.67;;;;;;;-3.38;80.68;97727.89;1717615;83;21122;-65
2021/01/31 03:08:04;;;;;;;8.15;5.28;;;;;;;-3.36;80.62;97739.61;1660394;84;21206;-64
2021/01/31 03:10:39;;;;;;;8.00;5.27;;;;;;;-3.37;80.23;97744.67;1654222;85;21323;-65
2021/01/31 03:13:23;;;;;;;9.28;6.20;;;;;;;-3.30;79.98;97754.67;1655174;85;21238;-64
2021/01/31 03:16:13;;;;;;;10.82;7.12;;;;;;;-3.35;79.90;97769.17;1678067;84;21162;-64
2021/01/31 03:18:58;;;;;;;10.48;5.97;;;;;;;-3.34;79.93;97783.59;1619678;85;21281;-65
2021/01/31 03:21:29;;;;;;;7.70;5.55;;;;;;;-3.32;79.75;97780.69;1657757;86;21187;-64
2021/01/31 03:24:14;;;;;;;8.28;5.53;;;;;;;-3.27;79.70;97796.27;1658647;85;21554;-65
2021/01/31 03:26:46;;;;;;;8.28;5.37;;;;;;;-3.29;79.73;97797.52;1655811;85;21204;-63
2021/01/31 03:29:13;;;;;;;9.73;5.50;;;;;;;-3.28;79.71;97805.80;1695187;84;21840;-64
2021/01/31 03:31:45;;;;;;;8.30;5.62;;;;;;;-3.25;79.53;97808.81;1657485;84;21194;-64
2021/01/31 03:34:16;;;;;;;9.80;5.10;;;;;;;-3.26;79.51;97812.50;1674044;84;21207;-64
2021/01/31 03:36:48;;;;;;;8.50;5.50;;;;;;;-3.26;79.50;97819.70;1697441;84;21169;-64
2021/01/31 03:39:15;;;;;;;9.13;5.62;;;;;;;-3.26;79.50;97815.70;1650117;84;21204;-64
2021/01/31 03:41:43;;;;;;;7.12;4.47;;;;;;;-3.28;79.49;97819.91;1627026;86;21194;-64
2021/01/31 03:44:10;;;;;;;8.53;6.12;;;;;;;-3.31;79.21;97817.72;1644493;86;21197;-64
2021/01/31 03:46:53;;;;;;;8.10;5.05;;;;;;;-3.30;79.20;97818.53;1672365;85;21205;-65
2021/01/31 03:49:40;;;;;;;9.28;6.42;;;;;;;-3.31;79.18;97835.02;1654840;86;21157;-64
2021/01/31 03:52:07;;;;;;;11.38;7.55;;;;;;;-3.35;79.35;97836.51;1655631;86;21200;-63
2021/01/31 03:54:35;;;;;;;11.55;7.50;;;;;;;-3.32;79.19;97836.56;1625587;86;21798;-64
2021/01/31 03:57:07;;;;;;;11.38;6.80;;;;;;;-3.37;79.39;97843.11;1670168;85;21153;-63
2021/01/31 03:59:43;;;;;;;9.05;6.37;;;;;;;-3.33;79.29;97842.94;1643209;86;21238;-63
2021/01/31 04:02:10;;;;;;;9.93;5.87;;;;;;;-3.36;79.41;97852.17;1696029;83;21169;-64
2021/01/31 04:04:48;;;;;;;11.38;7.22;;;;;;;-3.36;79.39;97856.67;1648693;83;21165;-64
2021/01/31 04:07:20;;;;;;;7.90;4.30;;;;;;;-3.34;79.38;97866.08;1711769;83;21223;-64
2021/01/31 04:09:48;;;;;;;10.13;6.50;;;;;;;-3.41;79.41;97873.86;1694852;83;21604;-63
2021/01/31 04:12:17;;;;;;;8.75;6.10;;;;;;;-3.34;79.31;97882.55;1696021;83;21184;-64
2021/01/31 04:14:56;;;;;;;8.60;5.35;;;;;;;-3.30;79.24;97886.38;1703940;83;21565;-63
2021/01/31 04:17:24;;;;;;;8.25;5.30;;;;;;;-3.32;79.36;97892.44;1704100;83;21175;-65
2021/01/31 04:19:52;;;;;;;11.15;6.22;;;;;;;-3.33;79.24;97901.48;1697121;83;21170;-64
2021/01/31 04:22:19;;;;;;;9.08;6.10;;;;;;;-3.35;79.23;97903.54;1694952;83;21219;-63
2021/01/31 04:24:47;;;;;;;9.90;6.55;;;;;;;-3.36;79.17;97920.53;1693121;83;21160;-64
2021/01/31 04:27:14;;;;;;;10.72;6.15;;;;;;;-3.36;79.18;97922.67;1700458;83;21147;-64
2021/01/31 04:29:42;;;;;;;12.53;7.40;;;;;;;-3.39;79.25;97926.31;1701575;83;21669;-65
2021/01/31 04:32:12;;;;;;;10.32;6.42;;;;;;;-3.40;79.46;97930.81;1706019;83;21318;-64
2021/01/31 04:34:39;;;;;;;10.43;6.40;;;;;;;-3.38;79.46;97933.27;1717308;83;21148;-65
2021/01/31 04:37:07;;;;;;;11.12;6.78;;;;;;;-3.39;79.58;97937.77;1713465;83;21549;-64
2021/01/31 04:39:34;;;;;;;11.53;7.50;;;;;;;-3.36;79.35;97943.96;1697470;83;21128;-64
2021/01/31 04:42:02;;;;;;;11.68;7.85;;;;;;;-3.38;79.42;97944.72;1721777;82;21178;-63
2021/01/31 04:44:29;;;;;;;11.55;7.45;;;;;;;-3.37;79.33;97949.53;1714930;82;21576;-63
2021/01/31 04:47:21;;;;;;;12.20;7.97;;;;;;;-3.43;79.53;97955.73;1736108;82;21161;-63
2021/01/31 04:50:16;;;;;;;11.93;7.90;;;;;;;-3.45;79.56;97965.28;1668617;84;21189;-61
2021/01/31 04:52:51;;;;;;;12.30;8.20;;;;;;;-3.40;79.41;97974.71;1647946;85;21322;-62
2021/01/31 04:55:58;;;;;;;12.07;7.65;;;;;;;-3.44;79.42;97980.22;1674152;84;21169;-63
2021/01/31 04:58:34;;;;;;;13.00;7.83;;;;;;;-3.44;79.41;97990.86;1666257;86;21296;-65
2021/01/31 05:01:18;;;;;;;12.50;8.28;;;;;;;-3.47;79.61;97998.47;1664231;86;21640;-65
2021/01/31 05:03:59;;;;;;;14.38;8.73;;;;;;;-3.47;79.56;97999.80;1668895;86;21325;-65
2021/01/31 05:06:40;;;;;;;12.63;8.43;;;;;;;-3.49;79.63;97996.54;1653374;85;21180;-65
2021/01/31 05:09:19;;;;;;;13.50;8.15;;;;;;;-3.48;79.63;97995.52;1689141;84;21303;-64
2021/01/31 05:12:06;;;;;;;15.20;9.00;;;;;;;-3.49;79.62;98011.17;1658748;86;21322;-64
2021/01/31 05:15:01;;;;;;;15.93;9.75;;;;;;;-3.46;79.42;98014.20;1648843;86;21168;-63
2021/01/31 05:17:28;;;;;;;14.45;9.08;;;;;;;-3.45;79.38;98019.81;1649294;85;21197;-63
2021/01/31 05:19:57;;;;;;;16.95;10.45;;;;;;;-3.44;79.32;98020.64;1688142;84;21647;-64
2021/01/31 05:22:28;;;;;;;14.53;10.00;;;;;;;-3.39;79.27;98035.39;1672302;85;21595;-64
2021/01/31 05:24:56;;;;;;;15.75;10.08;;;;;;;-3.40;79.21;98036.45;1688942;84;21600;-64
2021/01/31 05:27:29;;;;;;;16.87;9.53;;;;;;;-3.39;79.21;98051.35;1651907;84;21602;-63
2021/01/31 05:29:57;;;;;;;14.78;9.65;;;;;;;-3.34;79.05;98051.00;1649276;85;21224;-64
2021/01/31 05:32:25;;;;;;;15.28;9.33;;;;;;;-3.31;78.89;98057.20;1661362;84;21627;-64
2021/01/31 05:34:56;;;;;;;16.37;10.53;;;;;;;-3.32;78.87;98056.89;1659268;86;21647;-63
2021/01/31 05:37:44;;;;;;;15.93;8.78;;;;;;;-3.32;78.90;98058.22;1634109;87;21345;-64
2021/01/31 05:40:34;;;;;;;14.45;9.03;;;;;;;-3.30;78.77;98062.82;1658990;84;21125;-63
2021/01/31 05:43:02;;;;;;;16.17;10.40;;;;;;;-3.26;78.65;98078.61;1674811;84;21248;-63
2021/01/31 05:45:38;;;;;;;16.12;10.13;;;;;;;-3.25;78.64;98076.77;1699388;84;21149;-63
2021/01/31 05:48:23;;;;;;;15.75;10.53;;;;;;;-3.25;78.62;98086.89;1643356;87;21237;-63
2021/01/31 05:50:52;;;;;;;14.98;9.20;;;;;;;-3.23;78.55;98086.69;1714743;82;21246;-64
2021/01/31 05:53:30;;;;;;;17.17;9.00;;;;;;;-3.23;78.46;98090.16;1738401;82;21150;-64
2021/01/31 05:56:27;;;;;;;17.62;10.50;;;;;;;-3.20;78.45;98088.37;1704759;82;21169;-63
2021/01/31 05:59:06;;;;;;;16.15;9.38;;;;;;;-3.18;78.36;98082.30;1696669;83;21310;-64
2021/01/31 06:01:58;;;;;;;16.07;10.15;;;;;;;-3.19;78.37;98097.97;1718934;82;21185;-62
2021/01/31 06:04:27;;;;;;;16.02;9.58;;;;;;;-3.14;78.28;98097.30;1719289;83;21185;-63
2021/01/31 06:07:12;;;;;;;15.55;9.83;;;;;;;-3.18;78.34;98112.91;1696472;82;21197;-64
2021/01/31 06:09:49;;;;;;;16.77;10.13;;;;;;;-3.12;78.11;98114.67;1725416;82;21234;-64
2021/01/31 06:12:24;;;;;;;15.98;9.43;;;;;;;-3.13;78.21;98118.91;1690850;85;21184;-63
2021/01/31 06:15:14;;;;;;;17.87;9.65;;;;;;;-3.17;78.15;98123.86;1667853;85;21176;-64
2021/01/31 06:17:42;;;;;;;15.78;9.53;;;;;;;-3.15;77.97;98127.09;1690712;83;21181;-63
2021/01/31 06:20:16;;;;;;;15.83;9.43;;;;;;;-3.16;78.24;98137.98;1704008;82;21625;-63
2021/01/31 06:22:50;;;;;;;17.50;10.80;;;;;;;-3.14;78.32;98151.36;1692950;85;21150;-63
2021/01/31 06:25:29;;;;;;;16.75;10.72;;;;;;;-3.09;78.25;98154.69;1700799;82;21295;-64
2021/01/31 06:28:14;;;;;;;18.75;11.55;;;;;;;-3.06;78.20;98157.72;1702205;82;21137;-64
2021/01/31 06:31:20;;;;;;;17.07;10.40;;;;;;;-3.09;78.42;98164.01;1696254;82;21181;-63
2021/01/31 06:33:47;;;;;;;18.73;11.40;;;;;;;-3.04;78.39;98172.94;1674592;83;21181;-64
2021/01/31 06:36:42;;;;;;;20.10;12.43;;;;;;;-3.05;78.54;98182.50;1736761;82;21260;-64
2021/01/31 06:39:33;;;;;;;20.35;12.15;;;;;;;-3.01;78.54;98174.33;1730322;82;21142;-63
2021/01/31 06:42:33;;;;;;;24.18;13.32;;;;;;;-3.06;78.73;98176.36;1719801;83;21248;-63
2021/01/31 06:45:09;;;;;;;20.70;12.58;;;;;;;-3.01;78.77;98184.47;1698923;82;21682;-64
2021/01/31 06:48:05;;;;;;;21.10;12.35;;;;;;;-2.99;78.76;98188.25;1692735;82;21223;-64
2021/01/31 06:51:04;;;;;;;18.02;10.58;;;;;;;-2.94;78.78;98189.72;1726517;82;21600;-62
2021/01/31 06:53:50;;;;;;;23.22;13.15;;;;;;;-2.90;78.74;98192.75;1701480;82;21201;-63
2021/01/31 06:56:42;;;;;;;21.97;14.20;;;;;;;-2.87;78.72;98190.99;1741285;82;21138;-63
2021/01/31 06:59:38;;;;;;;21.20;13.45;;;;;;;-2.84;78.63;98196.69;1699034;83;21186;-64
2021/01/31 07:02:35;;;;;;;22.02;12.65;;;;;;;-2.74;78.47;98206.29;1659012;85;21613;-64
2021/01/31 07:05:21;;;;;;;22.10;12.95;;;;;;;-2.69;78.25;98209.08;1660034;85;21201;-64
2021/01/31 07:07:59;;;;;;;20.62;12.07;;;;;;;-2.65;78.06;98217.44;1676361;85;21165;-63
2021/01/31 07:11:02;;;;;;;20.12;12.55;;;;;;;-2.61;77.88;98215.44;1734666;82;21183;-63
2021/01/31 07:13:50;;;;;;;19.82;13.03;;;;;;;-2.54;77.83;98226.01;1748122;82;21336;-63
2021/01/31 07:16:32;;;;;;;20.15;12.50;;;;;;;-2.53;77.56;98226.31;1706031;82;21161;-64
2021/01/31 07:19:11;;;;;;;22.05;14.10;;;;;;;-2.46;77.45;98235.55;1713517;82;21645;-63
2021/01/31 07:21:50;;;;;;;22.87;13.38;;;;;;;-2.45;77.13;98235.34;1702705;82;21640;-65
2021/01/31 07:24:25;;;;;;;21.00;12.55;;;;;;;-2.37;76.96;98244.88;1683666;85;21134;-63
2021/01/31 07:26:59;;;;;;;22.02;12.50;;;;;;;-2.36;76.85;98243.81;1711416;83;21189;-64
2021/01/31 07:29:31;;;;;;;22.85;13.90;;;;;;;-2.33;76.33;98245.51;1693853;85;21218;-65
2021/01/31 07:31:58;;;;;;;23.00;12.78;;;;;;;-2.30;75.97;98246.39;1748202;82;21170;-65
2021/01/31 07:34:33;;;;;;;20.17;11.08;;;;;;;-2.30;75.90;98251.72;1747861;82;21169;-64
2021/01/31 07:37:16;;;;;;;18.05;11.43;;;;;;;-2.28;75.55;98256.84;1711646;83;22018;-65
2021/01/31 07:40:07;;;;;;;17.80;11.15;;;;;;;-2.25;75.30;98265.20;1723097;82;21279;-63
2021/01/31 07:42:37;;;;;;;17.75;9.93;;;;;;;-2.18;74.64;98268.59;1744642;82;21311;-64
2021/01/31 07:45:17;;;;;;;19.52;11.12;;;;;;;-2.15;73.93;98270.80;1748980;82;21226;-65
2021/01/31 07:47:45;;;;;;;19.20;11.25;;;;;;;-2.08;73.63;98279.52;1725722;82;21200;-64
2021/01/31 07:50:21;;;;;;;17.12;10.93;;;;;;;-2.04;73.02;98292.70;1689658;83;21166;-63
2021/01/31 07:52:56;;;;;;;17.33;10.97;;;;;;;-1.99;72.51;98293.36;1731061;82;21231;-64
2021/01/31 07:55:34;;;;;;;17.77;10.55;;;;;;;-1.94;72.62;98300.15;1749405;82;21297;-63
2021/01/31 07:58:14;;;;;;;17.35;9.98;;;;;;;-1.85;72.54;98301.47;1728206;82;21168;-63
2021/01/31 08:00:44;;;;;;;16.52;10.18;;;;;;;-1.81;72.03;98308.50;1690183;85;21170;-63
2021/01/31 08:03:32;;;;;;;16.65;10.32;;;;;;;-1.74;71.54;98310.55;1677628;82;21154;-65
2021/01/31 08:06:35;;;;;;;19.92;10.13;;;;;;;-1.78;71.68;98313.38;1722574;82;21189;-64
2021/01/31 08:09:03;;;;;;;16.85;10.15;;;;;;;-1.71;71.30;98321.58;1717152;82;21615;-65
2021/01/31 08:11:42;;;;;;;15.05;9.25;;;;;;;-1.69;71.28;98328.01;1698694;82;21311;-65
2021/01/31 08:14:10;;;;;;;15.55;9.68;;;;;;;-1.65;70.37;98327.34;1693877;83;21227;-66
2021/01/31 08:16:53;;;;;;;15.18;9.30;;;;;;;-1.59;70.18;98327.75;1705558;82;21157;-63
2021/01/31 08:19:31;;;;;;;18.65;9.73;;;;;;;-1.52;69.68;98325.80;1719660;83;21164;-63
2021/01/31 08:22:11;;;;;;;13.88;8.78;;;;;;;-1.45;69.51;98331.58;1718931;83;21315;-65
2021/01/31 08:25:11;;;;;;;15.45;8.63;;;;;;;-1.37;69.49;98328.55;1689480;85;21165;-63
2021/01/31 08:27:49;;;;;;;15.08;9.00;;;;;;;-1.35;68.39;98340.66;1697016;83;21153;-65
2021/01/31 08:30:33;;;;;;;14.30;8.55;;;;;;;-1.28;68.31;98337.88;1724803;82;21738;-64
2021/01/31 08:33:06;;;;;;;14.55;8.18;;;;;;;-1.33;67.87;98345.75;1690785;83;21244;-64
2021/01/31 08:35:46;;;;;;;12.88;7.20;;;;;;;-1.36;67.27;98346.20;1726907;82;21169;-65
2021/01/31 08:38:31;;;;;;;14.07;7.75;;;;;;;-1.35;66.39;98344.66;1708838;83;21650;-66
2021/01/31 08:41:05;;;;;;;10.85;6.92;;;;;;;-1.24;65.84;98349.72;1718569;82;21477;-65
2021/01/31 08:43:49;;;;;;;12.10;6.62;;;;;;;-0.99;65.66;98356.20;1700940;83;21327;-64
2021/01/31 08:46:23;;;;;;;13.95;7.53;;;;;;;-0.76;64.49;98365.03;1714172;82;21122;-65
2021/01/31 08:48:55;;;;;;;15.40;7.20;;;;;;;-0.47;63.59;98367.30;1704499;82;21161;-65
2021/01/31 08:51:33;;;;;;;13.83;7.20;;;;;;;-0.28;62.83;98376.78;1663835;85;21660;-68
2021/01/31 08:54:20;;;;;;;12.73;7.20;;;;;;;-0.13;62.58;98375.78;1705897;82;21133;-66
2021/01/31 08:57:05;;;;;;;12.95;6.65;;;;;;;-0.06;61.19;98385.82;1692371;82;21169;-65
2021/01/31 08:59:47;;;;;;;12.90;7.47;;;;;;;-0.11;61.43;98384.36;1635135;88;21219;-66
2021/01/31 09:02:20;;;;;;;12.80;7.08;;;;;;;-0.08;61.34;98384.44;1648755;85;21561;-66
2021/01/31 09:04:56;;;;;;;11.73;6.65;;;;;;;0.02;61.10;98386.50;1724536;82;21161;-66
2021/01/31 09:07:38;;;;;;;12.05;7.78;;;;;;;0.08;60.73;98386.88;1652213;85;21176;-67
2021/01/31 09:10:26;;;;;;;12.10;6.65;;;;;;;0.16;60.94;98383.84;1703547;84;21329;-68
2021/01/31 09:13:15;;;;;;;11.97;7.28;;;;;;;0.17;59.46;98384.95;1691634;82;21633;-66
2021/01/31 09:15:43;;;;;;;12.15;6.53;;;;;;;0.35;59.90;98386.12;1689600;84;21614;-66
2021/01/31 09:18:19;;;;;;;11.40;6.22;;;;;;;0.27;59.18;98393.70;1709092;84;21715;-68
2021/01/31 09:20:48;;;;;;;10.48;6.05;;;;;;;0.30;59.55;98395.90;1648198;87;21538;-68
2021/01/31 09:23:21;;;;;;;11.50;6.35;;;;;;;0.38;59.79;98399.55;1708073;82;21288;-67
2021/01/31 09:25:48;;;;;;;11.05;6.20;;;;;;;0.53;58.43;98408.39;1652001;85;21631;-68
2021/01/31 09:28:21;;;;;;;11.33;6.60;;;;;;;0.57;58.57;98413.56;1687348;84;21238;-63
2021/01/31 09:30:56;;;;;;;9.53;5.45;;;;;;;0.50;58.41;98421.71;1692860;82;21484;-67
2021/01/31 09:33:40;;;;;;;11.43;6.75;;;;;;;0.44;58.56;98418.14;1688943;84;21502;-64
2021/01/31 09:36:22;;;;;;;8.25;5.00;;;;;;;0.60;58.38;98427.29;1700062;82;21196;-66
2021/01/31 09:38:51;;;;;;;9.15;5.37;;;;;;;0.61;57.62;98418.70;1687911;82;21181;-68
2021/01/31 09:41:21;;;;;;;9.15;5.80;;;;;;;0.71;58.14;98433.64;1661968;84;21243;-65
2021/01/31 09:43:54;;;;;;;11.85;6.65;;;;;;;0.68;57.89;98432.76;1653702;85;21334;-63
2021/01/31 09:46:24;;;;;;;9.13;5.12;;;;;;;0.68;57.94;98436.78;1652995;86;21619;-64
2021/01/31 09:49:09;;;;;;;9.95;5.50;;;;;;;0.69;57.46;98437.08;1660605;85;21155;-65
2021/01/31 09:51:36;;;;;;;9.70;6.03;;;;;;;0.67;57.17;98441.34;1647699;86;21154;-64
2021/01/31 09:54:31;;;;;;;9.23;5.58;;;;;;;0.65;56.98;98434.58;1676740;84;21143;-64
2021/01/31 09:57:01;;;;;;;8.53;5.40;;;;;;;0.69;56.93;98439.23;1661918;85;21211;-65
2021/01/31 09:59:37;;;;;;;11.38;6.08;;;;;;;0.61;56.64;98440.13;1656264;85;21200;-65
2021/01/31 10:02:20;;;;;;;8.10;5.30;;;;;;;0.57;56.52;98443.02;1657875;85;21752;-66
2021/01/31 10:04:59;;;;;;;9.10;4.85;;;;;;;0.61;56.33;98453.52;1672298;85;21688;-67
2021/01/31 10:07:32;;;;;;;8.70;4.08;;;;;;;0.60;55.55;98451.91;1680509;84;21189;-68
2021/01/31 10:10:21;;;;;;;9.18;4.37;;;;;;;0.48;55.27;98450.08;1674053;84;21295;-69
2021/01/31 10:12:48;;;;;;;13.62;7.12;;;;;;;0.36;55.08;98457.33;1627611;84;21617;-67
2021/01/31 10:15:36;;;;;;;16.60;7.33;;;;;;;0.40;56.02;98454.47;1698949;84;21177;-68
2021/01/31 10:18:04;;;;;;;9.33;5.87;;;;;;;0.43;55.93;98458.52;1659256;85;21643;-68
2021/01/31 10:20:35;;;;;;;11.68;6.42;;;;;;;0.45;55.77;98461.27;1660713;84;21192;-68
2021/01/31 10:23:14;;;;;;;10.95;6.33;;;;;;;0.48;56.05;98470.16;1660469;85;21203;-71
2021/01/31 10:25:59;;;;;;;11.20;6.37;;;;;;;0.53;55.66;98472.66;1677311;84;21200;-66
2021/01/31 10:28:34;;;;;;;13.85;7.95;;;;;;;0.49;55.23;98475.81;1656852;85;21231;-67
2021/01/31 10:31:02;;;;;;;9.95;5.58;;;;;;;0.54;55.98;98483.11;1661153;86;21153;-68
2021/01/31 10:33:44;;;;;;;12.68;6.20;;;;;;;0.59;56.20;98477.05;1673561;85;21190;-67
2021/01/31 10:36:40;;;;;;;10.32;5.47;;;;;;;0.63;55.81;98487.59;1682508;84;21580;-68
2021/01/31 10:39:19;;;;;;;9.35;5.20;;;;;;;0.63;56.39;98492.42;1663840;85;21620;-67
2021/01/31 10:41:46;;;;;;;9.88;5.50;;;;;;;0.64;55.49;98489.22;1695352;84;21604;-67
2021/01/31 10:44:22;;;;;;;10.70;5.87;;;;;;;0.59;56.02;98495.28;1671350;85;21228;-67
2021/01/31 10:46:49;;;;;;;8.68;4.53;;;;;;;0.70;55.41;98492.28;1672908;86;21305;-68
2021/01/31 10:49:17;;;;;;;7.78;4.80;;;;;;;0.66;53.69;98491.13;1671340;84;21181;-68
2021/01/31 10:51:44;;;;;;;8.53;4.22;;;;;;;0.66;54.34;98499.97;1661477;84;21296;-69
2021/01/31 10:54:13;;;;;;;12.33;5.60;;;;;;;0.68;54.02;98505.08;1660610;84;21551;-67
2021/01/31 10:56:41;;;;;;;8.33;4.33;;;;;;;0.73;53.45;98503.33;1645707;87;21396;-67
2021/01/31 10:59:08;;;;;;;10.00;4.05;;;;;;;0.69;53.71;98502.17;1646979;84;21243;-68
2021/01/31 11:01:36;;;;;;;9.15;4.70;;;;;;;0.62;52.79;98498.00;1693672;84;21584;-68
2021/01/31 11:04:03;;;;;;;9.68;4.87;;;;;;;0.57;53.38;98501.38;1699491;84;21211;-68
2021/01/31 11:06:30;;;;;;;9.88;5.17;;;;;;;0.54;53.48;98509.89;1700761;84;21707;-67
2021/01/31 11:08:59;;;;;;;8.95;4.92;;;;;;;0.56;53.46;98514.50;1698474;84;21512;-68
2021/01/31 11:11:28;;;;;;;8.90;4.10;;;;;;;0.64;53.54;98522.70;1672881;86;21195;-68
2021/01/31 11:13:55;;;;;;;7.80;4.78;;;;;;;0.64;53.30;98511.98;1672656;85;21265;-66
2021/01/31 11:16:23;;;;;;;9.35;4.90;;;;;;;0.71;53.85;98516.13;1673029;86;21333;-68
2021/01/31 11:18:50;;;;;;;9.48;4.80;;;;;;;0.72;53.02;98523.64;1671154;86;21234;-67
2021/01/31 11:21:21;;;;;;;10.40;5.40;;;;;;;0.71;52.67;98523.37;1685503;84;21137;-66
2021/01/31 11:23:49;;;;;;;7.10;4.10;;;;;;;0.62;52.59;98529.62;1675170;84;21219;-68
2021/01/31 11:26:17;;;;;;;8.43;4.85;;;;;;;0.53;52.83;98521.67;1672680;86;21190;-67
2021/01/31 11:28:44;;;;;;;8.53;3.98;;;;;;;0.47;53.36;98532.80;1675910;84;21165;-68
2021/01/31 11:31:11;;;;;;;7.12;3.65;;;;;;;0.43;53.18;98528.95;1667761;84;21208;-68
2021/01/31 11:33:39;;;;;;;6.75;3.67;;;;;;;0.44;53.64;98531.93;1661973;84;21730;-68
2021/01/31 11:36:07;;;;;;;7.47;3.98;;;;;;;0.46;54.06;98538.40;1653840;84;21211;-68
2021/01/31 11:38:34;;;;;;;8.65;3.92;;;;;;;0.50;53.97;98526.95;1657059;84;21213;-67
2021/01/31 11:41:01;;;;;;;8.73;4.50;;;;;;;0.56;53.22;98536.45;1668049;84;21697;-65
2021/01/31 11:43:29;;;;;;;7.50;3.67;;;;;;;0.59;53.35;98539.98;1657735;84;21696;-64
2021/01/31 11:45:56;;;;;;;8.93;4.25;;;;;;;0.55;53.27;98544.19;1693368;82;21191;-63
2021/01/31 11:48:23;;;;;;;7.17;3.87;;;;;;;0.58;53.13;98539.69;1706290;82;21185;-63
2021/01/31 11:50:51;;;;;;;6.62;3.40;;;;;;;0.59;53.13;98546.16;1698108;84;21618;-65
2021/01/31 11:53:19;;;;;;;9.30;5.00;;;;;;;0.58;53.40;98545.05;1740014;82;21163;-64
2021/01/31 11:55:47;;;;;;;8.73;4.58;;;;;;;0.64;53.45;98544.13;1663015;85;21171;-65
2021/01/31 11:58:15;;;;;;;7.95;4.72;;;;;;;0.71;53.70;98542.91;1697853;82;21183;-65
2021/01/31 12:00:43;;;;;;;9.58;4.83;;;;;;;0.80;53.26;98544.70;1704301;82;21648;-66
2021/01/31 12:03:12;;;;;;;8.28;4.20;;;;;;;0.76;53.34;98555.08;1685295;84;21234;-64
2021/01/31 12:05:40;;;;;;;8.45;4.42;;;;;;;0.70;53.49;98554.70;1714354;82;21625;-65
2021/01/31 12:08:07;;;;;;;9.73;4.42;;;;;;;0.59;53.04;98558.22;1660049;85;21391;-64